Terminal Aerodrome Forecast
Issued by NWS Grand Forks, ND

Home | Current Version | Previous Version | Text Only | Print | Product List | Glossary On
Versions: 1 2 3 4 5 6 7 8 9 10 11 12 13 14 15
000
FTUS43 KFGF 270520
TAFGFK
TAF
KGFK 270520Z 2706/2806 VRB03KT P6SM FEW250
     FM271200 13008KT P6SM VCSH SCT090 BKN200
     FM271500 10007KT P6SM FEW100 SCT250
     FM272300 07006KT P6SM SCT100 BKN250
     FM280000 04007KT P6SM SCT080 BKN150=

USA.gov is the U.S. government's official web portal to all federal, state and local government web resources and services.